sensor_id;sensor_type;location;lat;lon;timestamp;pressure;altitude;pressure_sealevel;temperature;humidity
4528;BME280;62320;51.520;6.818;2022-10-31T00:06:40;101620.28;;;15.50;88.72
4528;BME280;62320;51.520;6.818;2022-10-31T00:16:41;101620.34;;;15.40;87.91
4528;BME280;62320;51.520;6.818;2022-10-31T00:26:43;101613.41;;;15.34;87.49
4528;BME280;62320;51.520;6.818;2022-10-31T00:36:44;101617.75;;;15.34;87.85
4528;BME280;62320;51.520;6.818;2022-10-31T00:46:46;101623.91;;;15.24;88.08
4528;BME280;62320;51.520;6.818;2022-10-31T00:56:47;101611.72;;;15.20;89.64
4528;BME280;62320;51.520;6.818;2022-10-31T01:06:48;101617.03;;;15.08;87.22
4528;BME280;62320;51.520;6.818;2022-10-31T01:16:50;101616.16;;;15.07;88.13
4528;BME280;62320;51.520;6.818;2022-10-31T01:26:51;101619.63;;;15.01;89.32
4528;BME280;62320;51.520;6.818;2022-10-31T01:36:52;101609.25;;;14.92;90.34
4528;BME280;62320;51.520;6.818;2022-10-31T01:47:01;101612.81;;;14.81;87.77
4528;BME280;62320;51.520;6.818;2022-10-31T01:57:08;101623.28;;;14.63;91.10
4528;BME280;62320;51.520;6.818;2022-10-31T02:07:18;101616.38;;;14.51;91.04
4528;BME280;62320;51.520;6.818;2022-10-31T02:17:20;101606.84;;;14.41;90.38
4528;BME280;62320;51.520;6.818;2022-10-31T02:38:00;101612.06;;;14.14;88.31
4528;BME280;62320;51.520;6.818;2022-10-31T02:48:10;101617.28;;;14.03;89.28
4528;BME280;62320;51.520;6.818;2022-10-31T02:58:15;101600.81;;;13.89;90.16
4528;BME280;62320;51.520;6.818;2022-10-31T03:08:52;101599.97;;;13.78;91.17
4528;BME280;62320;51.520;6.818;2022-10-31T03:19:11;101605.13;;;13.63;94.00
4528;BME280;62320;51.520;6.818;2022-10-31T03:29:16;101621.59;;;13.51;92.06
4528;BME280;62320;51.520;6.818;2022-10-31T03:39:21;101609.44;;;13.37;90.24
4528;BME280;62320;51.520;6.818;2022-10-31T03:49:23;101609.41;;;13.34;91.74
4528;BME280;62320;51.520;6.818;2022-10-31T03:59:37;101612.00;;;13.23;90.22
4528;BME280;62320;51.520;6.818;2022-10-31T04:09:46;101611.09;;;13.14;92.06
4528;BME280;62320;51.520;6.818;2022-10-31T04:19:48;101611.97;;;13.13;89.36
4528;BME280;62320;51.520;6.818;2022-10-31T04:29:50;101587.69;;;13.06;90.51
4528;BME280;62320;51.520;6.818;2022-10-31T04:39:51;101589.38;;;13.00;90.26
4528;BME280;62320;51.520;6.818;2022-10-31T04:49:52;101585.06;;;13.00;91.25
4528;BME280;62320;51.520;6.818;2022-10-31T04:59:54;101588.53;;;13.01;91.91
4528;BME280;62320;51.520;6.818;2022-10-31T05:09:55;101595.44;;;13.02;92.35
4528;BME280;62320;51.520;6.818;2022-10-31T05:19:56;101569.44;;;12.91;92.30
4528;BME280;62320;51.520;6.818;2022-10-31T05:29:58;101559.91;;;12.84;89.69
4528;BME280;62320;51.520;6.818;2022-10-31T05:40:02;101557.28;;;12.79;91.14
4528;BME280;62320;51.520;6.818;2022-10-31T05:50:09;101558.13;;;12.65;91.63
4528;BME280;62320;51.520;6.818;2022-10-31T06:00:11;101563.31;;;12.65;91.87
4528;BME280;62320;51.520;6.818;2022-10-31T06:10:13;101562.44;;;12.58;92.05
4528;BME280;62320;51.520;6.818;2022-10-31T06:20:15;101554.59;;;12.51;90.84
4528;BME280;62320;51.520;6.818;2022-10-31T06:30:16;101558.03;;;12.48;92.39
4528;BME280;62320;51.520;6.818;2022-10-31T06:40:17;101559.75;;;12.48;93.95
4528;BME280;62320;51.520;6.818;2022-10-31T06:50:21;101578.84;;;12.60;92.29
4528;BME280;62320;51.520;6.818;2022-10-31T07:00:25;101566.78;;;12.73;90.39
4528;BME280;62320;51.520;6.818;2022-10-31T07:10:28;101583.25;;;12.73;92.50
4528;BME280;62320;51.520;6.818;2022-10-31T07:20:34;101586.69;;;12.69;90.65
4528;BME280;62320;51.520;6.818;2022-10-31T07:30:37;101583.22;;;12.75;92.25
4528;BME280;62320;51.520;6.818;2022-10-31T07:40:40;101570.31;;;12.81;91.23
4528;BME280;62320;51.520;6.818;2022-10-31T07:50:41;101567.72;;;12.85;92.29
4528;BME280;62320;51.520;6.818;2022-10-31T08:00:44;101578.97;;;12.94;93.46
4528;BME280;62320;51.520;6.818;2022-10-31T08:10:46;101585.09;;;13.03;92.07
4528;BME280;62320;51.520;6.818;2022-10-31T08:20:47;101588.59;;;13.16;91.59
4528;BME280;62320;51.520;6.818;2022-10-31T08:30:49;101579.09;;;13.24;90.75
4528;BME280;62320;51.520;6.818;2022-10-31T08:40:50;101580.84;;;13.37;92.36
4528;BME280;62320;51.520;6.818;2022-10-31T08:50:56;101575.66;;;13.56;94.95
4528;BME280;62320;51.520;6.818;2022-10-31T09:01:00;101565.28;;;13.58;91.95
4528;BME280;62320;51.520;6.818;2022-10-31T09:11:03;101567.03;;;13.71;92.18
4528;BME280;62320;51.520;6.818;2022-10-31T09:21:04;101554.03;;;13.88;89.59
4528;BME280;62320;51.520;6.818;2022-10-31T09:31:06;101536.63;;;14.32;96.73
4528;BME280;62320;51.520;6.818;2022-10-31T09:51:24;101506.25;;;14.37;91.96
4528;BME280;62320;51.520;6.818;2022-10-31T10:01:34;101506.13;;;14.64;93.65
4528;BME280;62320;51.520;6.818;2022-10-31T10:22:21;101492.66;;;15.35;93.06
4528;BME280;62320;51.520;6.818;2022-10-31T10:32:28;101487.47;;;15.32;90.94
4528;BME280;62320;51.520;6.818;2022-10-31T10:42:31;101463.94;;;15.44;90.20
4528;BME280;62320;51.520;6.818;2022-10-31T10:53:05;101445.34;;;15.81;92.94
4528;BME280;62320;51.520;6.818;2022-10-31T11:03:09;101431.28;;;15.94;89.58
4528;BME280;62320;51.520;6.818;2022-10-31T11:23:18;101359.53;;;16.28;89.53
4528;BME280;62320;51.520;6.818;2022-10-31T11:34:06;101360.97;;;16.47;90.41
4528;BME280;62320;51.520;6.818;2022-10-31T11:43:57;101362.16;;;16.87;89.84
4528;BME280;62320;51.520;6.818;2022-10-31T11:54:01;101349.03;;;16.89;89.54
4528;BME280;62320;51.520;6.818;2022-10-31T12:04:09;101343.16;;;17.27;87.70
4528;BME280;62320;51.520;6.818;2022-10-31T12:45:24;101263.00;;;17.71;86.69
4528;BME280;62320;51.520;6.818;2022-10-31T12:55:56;101227.41;;;17.63;86.47
4528;BME280;62320;51.520;6.818;2022-10-31T13:06:07;101207.03;;;17.77;86.55
4528;BME280;62320;51.520;6.818;2022-10-31T13:16:18;101179.69;;;17.92;85.77
4528;BME280;62320;51.520;6.818;2022-10-31T13:26:36;101149.81;;;18.00;85.50
4528;BME280;62320;51.520;6.818;2022-10-31T13:36:54;101116.25;;;18.16;85.01
4528;BME280;62320;51.520;6.818;2022-10-31T13:46:58;101101.72;;;18.06;85.77
4528;BME280;62320;51.520;6.818;2022-10-31T13:57:00;101113.34;;;18.26;84.50
4528;BME280;62320;51.520;6.818;2022-10-31T14:07:06;101101.19;;;18.25;84.99
4528;BME280;62320;51.520;6.818;2022-10-31T14:17:18;101061.97;;;18.24;85.09
4528;BME280;62320;51.520;6.818;2022-10-31T14:47:58;101033.50;;;18.42;84.48
4528;BME280;62320;51.520;6.818;2022-10-31T14:58:08;101022.81;;;18.51;84.20
4528;BME280;62320;51.520;6.818;2022-10-31T15:08:14;100998.47;;;18.48;84.10
4528;BME280;62320;51.520;6.818;2022-10-31T15:18:27;100985.56;;;18.40;84.98
4528;BME280;62320;51.520;6.818;2022-10-31T15:28:29;100982.19;;;18.35;85.07
4528;BME280;62320;51.520;6.818;2022-10-31T15:38:32;100966.75;;;18.26;85.08
4528;BME280;62320;51.520;6.818;2022-10-31T15:48:34;100960.91;;;18.18;85.41
4528;BME280;62320;51.520;6.818;2022-10-31T15:58:44;100951.56;;;18.10;84.64
4528;BME280;62320;51.520;6.818;2022-10-31T16:08:48;100941.28;;;18.02;85.24
4528;BME280;62320;51.520;6.818;2022-10-31T16:18:51;100920.81;;;17.86;83.38
4528;BME280;62320;51.520;6.818;2022-10-31T16:28:55;100904.59;;;17.73;83.44
4528;BME280;62320;51.520;6.818;2022-10-31T16:39:06;100915.22;;;17.67;83.00
4528;BME280;62320;51.520;6.818;2022-10-31T16:49:09;100899.78;;;17.58;82.99
4528;BME280;62320;51.520;6.818;2022-10-31T16:59:10;100908.59;;;17.54;83.29
4528;BME280;62320;51.520;6.818;2022-10-31T17:09:16;100902.06;;;17.36;82.84
4528;BME280;62320;51.520;6.818;2022-10-31T17:19:18;100896.31;;;17.22;82.79
4528;BME280;62320;51.520;6.818;2022-10-31T17:29:19;100887.13;;;17.06;84.09
4528;BME280;62320;51.520;6.818;2022-10-31T17:39:21;100878.69;;;16.96;84.47
4528;BME280;62320;51.520;6.818;2022-10-31T17:49:23;100869.38;;;16.85;84.75
4528;BME280;62320;51.520;6.818;2022-10-31T17:59:24;100865.19;;;16.78;84.51
4528;BME280;62320;51.520;6.818;2022-10-31T18:09:27;100858.44;;;16.69;84.05
4528;BME280;62320;51.520;6.818;2022-10-31T18:19:29;100855.09;;;16.64;83.70
4528;BME280;62320;51.520;6.818;2022-10-31T18:29:30;100832.44;;;16.65;82.01
4528;BME280;62320;51.520;6.818;2022-10-31T18:39:31;100831.84;;;16.54;79.54
4528;BME280;62320;51.520;6.818;2022-10-31T18:49:33;100825.06;;;16.43;79.41
4528;BME280;62320;51.520;6.818;2022-10-31T18:59:34;100818.84;;;16.49;76.41
4528;BME280;62320;51.520;6.818;2022-10-31T19:09:36;100802.91;;;16.63;75.56
4528;BME280;62320;51.520;6.818;2022-10-31T19:19:37;100791.38;;;16.71;73.97
4528;BME280;62320;51.520;6.818;2022-10-31T19:29:39;100794.56;;;16.82;73.07
4528;BME280;62320;51.520;6.818;2022-10-31T19:39:42;100777.97;;;16.85;72.32
4528;BME280;62320;51.520;6.818;2022-10-31T19:49:44;100787.75;;;16.77;73.35
4528;BME280;62320;51.520;6.818;2022-10-31T19:59:46;100775.94;;;16.96;71.43
4528;BME280;62320;51.520;6.818;2022-10-31T20:09:47;100779.59;;;16.89;71.78
4528;BME280;62320;51.520;6.818;2022-10-31T20:19:48;100771.06;;;16.82;73.07
4528;BME280;62320;51.520;6.818;2022-10-31T20:29:50;100759.00;;;16.78;72.41
4528;BME280;62320;51.520;6.818;2022-10-31T20:39:51;100749.38;;;16.79;73.57
4528;BME280;62320;51.520;6.818;2022-10-31T20:49:56;100736.59;;;16.68;73.72
4528;BME280;62320;51.520;6.818;2022-10-31T20:59:58;100725.34;;;16.66;73.89
4528;BME280;62320;51.520;6.818;2022-10-31T21:09:59;100713.41;;;16.58;75.34
4528;BME280;62320;51.520;6.818;2022-10-31T21:20:01;100703.84;;;16.57;74.67
4528;BME280;62320;51.520;6.818;2022-10-31T21:30:02;100706.38;;;16.60;74.87
4528;BME280;62320;51.520;6.818;2022-10-31T21:40:04;100682.22;;;16.50;75.35
4528;BME280;62320;51.520;6.818;2022-10-31T21:50:06;100679.78;;;16.78;73.27
4528;BME280;62320;51.520;6.818;2022-10-31T22:00:08;100661.56;;;16.76;75.16
4528;BME280;62320;51.520;6.818;2022-10-31T22:10:10;100656.78;;;16.92;73.42
4528;BME280;62320;51.520;6.818;2022-10-31T22:20:12;100656.22;;;16.81;73.96
4528;BME280;62320;51.520;6.818;2022-10-31T22:30:13;100646.84;;;16.74;74.47
4528;BME280;62320;51.520;6.818;2022-10-31T22:40:15;100640.56;;;16.79;74.19
4528;BME280;62320;51.520;6.818;2022-10-31T22:50:16;100628.31;;;16.81;74.77
4528;BME280;62320;51.520;6.818;2022-10-31T23:00:18;100617.97;;;16.78;74.70
4528;BME280;62320;51.520;6.818;2022-10-31T23:10:20;100615.25;;;16.83;74.36
4528;BME280;62320;51.520;6.818;2022-10-31T23:20:21;100612.31;;;16.93;73.77
4528;BME280;62320;51.520;6.818;2022-10-31T23:30:23;100620.22;;;16.90;74.60
4528;BME280;62320;51.520;6.818;2022-10-31T23:40:24;100613.78;;;17.03;73.76
4528;BME280;62320;51.520;6.818;2022-10-31T23:50:25;100615.41;;;17.07;74.59
